Etna, Ohio
Current Conditions -  °F | °C
As of 5:51 PM on Sunday 21 Dec 2014 (Local Time) from KCMH Reporting Station
Broken Clouds Broken Clouds  
Wind Chill: 32°   Ceiling: 25000
Heat Index: 32°   Visibility: 7mi
Dew Point: 22°   Wind: 3mph
Humidity: 66%   Direction: 90°E
Pressure: 30.2"   Gusts: NA
Location:  39.96°N, 82.68°W
Report Text: KCMH 212251Z 09003KT 7SM FEW150 BKN250 00/M06 A3020 RMK AO2 SLP237 T00001056
Loading
Personal Weather Stations






























Interactive Weather Map New forecast layout! Learn more

10-Day Weather Forecast

Advertisements
Track Severe Weather on mobile